createdAt,value
2017-11-10T00:02:44.518Z,1020.00
2017-11-10T00:12:20.165Z,1020.00
2017-11-10T00:21:56.215Z,1020.00
2017-11-10T00:31:33.892Z,1020.00
2017-11-10T00:41:10.005Z,1020.00
2017-11-10T00:50:46.297Z,1020.00
2017-11-10T01:00:23.330Z,1020.00
2017-11-10T01:09:58.928Z,1020.00
2017-11-10T01:19:36.159Z,1020.00
2017-11-10T01:29:12.435Z,1020.00
2017-11-10T01:38:48.822Z,1020.00
2017-11-10T01:48:25.421Z,1020.00
2017-11-10T01:58:01.623Z,1020.00
2017-11-10T02:07:37.476Z,1020.00
2017-11-10T02:17:13.239Z,1020.00
2017-11-10T02:26:49.277Z,1020.00
2017-11-10T02:36:25.330Z,1020.00
2017-11-10T02:46:02.491Z,1020.00
2017-11-10T02:55:37.109Z,1020.00
2017-11-10T03:05:19.130Z,1020.00
2017-11-10T03:14:54.814Z,1018.96
2017-11-10T03:24:30.110Z,1018.96
2017-11-10T03:34:07.127Z,1020.00
2017-11-10T03:43:43.931Z,1018.96
2017-11-10T03:53:21.104Z,1018.96
2017-11-10T04:02:56.903Z,1018.96
2017-11-10T04:12:33.204Z,1018.96
2017-11-10T04:22:08.991Z,1018.96
2017-11-10T04:31:45.630Z,1018.96
2017-11-10T04:41:21.671Z,1018.96
2017-11-10T04:50:57.810Z,1018.96
2017-11-10T05:00:33.784Z,1018.96
2017-11-10T05:10:10.206Z,1018.96
2017-11-10T05:19:46.055Z,1018.96
2017-11-10T05:29:23.508Z,1018.96
2017-11-10T05:38:59.774Z,1018.96
2017-11-10T05:48:35.927Z,1018.96
2017-11-10T05:58:12.293Z,1018.96
2017-11-10T06:07:48.344Z,1018.96
2017-11-10T06:17:25.604Z,1018.96
2017-11-10T06:27:02.258Z,1018.96
2017-11-10T06:36:38.869Z,1018.96
2017-11-10T06:46:15.652Z,1018.96
2017-11-10T06:55:52.181Z,1018.96
2017-11-10T07:05:28.467Z,1018.96
2017-11-10T07:15:04.654Z,1018.96
2017-11-10T07:24:40.795Z,1018.96
2017-11-10T07:34:17.172Z,1018.96
2017-11-10T07:43:53.381Z,1018.96
2017-11-10T07:53:29.383Z,1018.96
2017-11-10T08:03:06.495Z,1018.96
2017-11-10T08:12:44.089Z,1018.96
2017-11-10T08:22:20.538Z,1018.96
2017-11-10T08:31:56.961Z,1018.96
2017-11-10T08:41:33.609Z,1018.96
2017-11-10T08:51:10.137Z,1018.96
2017-11-10T09:00:45.879Z,1018.96
2017-11-10T09:10:23.210Z,1018.96
2017-11-10T09:19:59.613Z,1017.91
2017-11-10T09:29:36.364Z,1017.91
2017-11-10T09:39:12.642Z,1017.91
2017-11-10T09:48:49.928Z,1017.91
2017-11-10T09:58:26.726Z,1017.91
2017-11-10T10:08:03.106Z,1017.91
2017-11-10T10:17:39.212Z,1017.91
2017-11-10T10:27:15.399Z,1016.86
2017-11-10T10:36:51.591Z,1016.86
2017-11-10T10:46:27.253Z,1016.86
2017-11-10T10:56:03.897Z,1016.86
2017-11-10T11:05:41.591Z,1016.86
2017-11-10T11:15:18.714Z,1015.82
2017-11-10T11:24:55.952Z,1015.82
2017-11-10T11:34:34.289Z,1015.82
2017-11-10T11:44:10.171Z,1014.77
2017-11-10T11:53:46.906Z,1014.77
2017-11-10T12:03:22.490Z,1014.77
2017-11-10T12:12:58.778Z,1014.77
2017-11-10T12:22:33.877Z,1014.77
2017-11-10T12:32:10.565Z,1014.77
2017-11-10T12:41:46.094Z,1014.77
2017-11-10T12:51:23.122Z,1013.73
2017-11-10T13:00:59.106Z,1013.73
2017-11-10T13:10:35.751Z,1013.73
2017-11-10T13:20:11.433Z,1013.73
2017-11-10T13:29:48.052Z,1013.73
2017-11-10T13:39:24.341Z,1013.73
2017-11-10T13:49:01.501Z,1013.73
2017-11-10T13:58:37.407Z,1013.73
2017-11-10T14:08:13.394Z,1013.73
2017-11-10T14:17:50.461Z,1013.73
2017-11-10T14:27:26.087Z,1013.73
2017-11-10T14:37:02.456Z,1013.73
2017-11-10T14:46:39.478Z,1013.73
2017-11-10T14:56:15.130Z,1013.73
2017-11-10T15:05:50.367Z,1013.73
2017-11-10T15:15:27.283Z,1013.73
2017-11-10T15:25:03.094Z,1013.73
2017-11-10T15:34:38.603Z,1013.73
2017-11-10T15:44:14.509Z,1013.73
2017-11-10T15:53:55.080Z,1013.73
2017-11-10T16:03:24.678Z,1013.73
2017-11-10T16:13:00.177Z,1013.73
2017-11-10T16:22:35.785Z,1012.68
2017-11-10T16:32:12.312Z,1012.68
2017-11-10T16:41:47.651Z,1012.68
2017-11-10T16:51:24.167Z,1013.73
2017-11-10T17:00:59.911Z,1012.68
2017-11-10T17:10:35.672Z,1013.73
2017-11-10T17:20:11.244Z,1013.73
2017-11-10T17:29:46.733Z,1012.68
2017-11-10T17:39:23.348Z,1012.68
2017-11-10T17:49:03.317Z,1012.68
2017-11-10T17:58:33.794Z,1012.68
2017-11-10T18:08:09.769Z,1012.68
2017-11-10T18:17:45.683Z,1012.68
2017-11-10T18:27:21.109Z,1012.68
2017-11-10T18:36:58.498Z,1012.68
2017-11-10T18:46:34.353Z,1012.68
2017-11-10T18:56:11.214Z,1012.68
2017-11-10T19:05:48.371Z,1012.68
2017-11-10T19:15:24.374Z,1012.68
2017-11-10T19:25:01.280Z,1012.68
2017-11-10T19:34:38.026Z,1012.68
2017-11-10T19:44:14.539Z,1012.68
2017-11-10T19:53:51.802Z,1012.68
2017-11-10T20:03:27.897Z,1012.68
2017-11-10T20:13:03.468Z,1012.68
2017-11-10T20:22:40.103Z,1012.68
2017-11-10T20:32:16.739Z,1012.68
2017-11-10T20:41:53.318Z,1012.68
2017-11-10T20:51:29.373Z,1012.68
2017-11-10T21:01:06.851Z,1011.63
2017-11-10T21:10:46.933Z,1011.63
2017-11-10T21:20:17.266Z,1011.63
2017-11-10T21:29:53.729Z,1011.63
2017-11-10T21:39:29.789Z,1011.63
2017-11-10T21:49:06.108Z,1012.68
2017-11-10T21:58:42.231Z,1011.63
2017-11-10T22:08:17.984Z,1011.63
2017-11-10T22:17:53.320Z,1011.63
2017-11-10T22:27:29.595Z,1011.63
2017-11-10T22:37:06.653Z,1011.63
2017-11-10T22:46:42.340Z,1011.63
2017-11-10T22:56:17.982Z,1011.63
2017-11-10T23:05:53.794Z,1011.63
2017-11-10T23:15:29.903Z,1011.63
2017-11-10T23:25:05.866Z,1011.63
2017-11-10T23:34:41.941Z,1011.63
2017-11-10T23:44:18.192Z,1011.63
2017-11-10T23:53:54.033Z,1011.63
